»·PEaware :: DFGCW KOTH-KCEC

DFGCW :: KOTH-KCEC

FLIGHT INFORMATION

Flight Status: Arrived
Operator: Unknown
More flights by this operator :: More flights under this callsign
Pilot: Klaus A. (15485)
Aircraft: PILATUS PC-12 EAGLE
(PC12)
More flights by this aircraft type
Origin: KOTH North Bend Mun
United States
Destination: KCEC McNamara
United States
More flights between these airports :: More routes between these airports
Route: +OTH6 LEDGE OTH V27 CEC
File this flight plan on PilotEdge
Remarks: / G Custom weather
Altitude:
(Current/Filed)
12,000ft
Speed:
(Current/Filed)
230kts
Departed: 25-Jun-18 09:07 AM
Arrived: 25-Jun-18 09:43 AM
Distance/Time
Traveled:
98nm/0:36
Distance/Time
To Go:
Arrived

Flight Plot

Page will automatically refresh every two minutes.

Flight plan parsing failed; only flown route is shown


Map Options




Map Legend


Flown Route
Filed Route
Departure Airport
Arrival Airport
Navaid (VOR, NDB)
Fix

Horizontal Profiles

Position Reports

Time Latitude Longitude Heading Altitude Ground
Speed
25-Jun-18 08:37 43.415254 -124.246058 330 23ft 0kts
25-Jun-18 08:38 43.415254 -124.246058 330 23ft 0kts
25-Jun-18 08:39 43.415254 -124.246058 330 23ft 0kts
25-Jun-18 08:40 43.415254 -124.246058 330 23ft 0kts
25-Jun-18 08:41 43.415254 -124.246058 330 23ft 0kts
25-Jun-18 08:42 43.415254 -124.246058 330 23ft 0kts
25-Jun-18 08:43 43.415254 -124.246058 330 23ft 0kts
25-Jun-18 08:44 43.415254 -124.246058 330 23ft 0kts
25-Jun-18 08:45 43.415254 -124.246058 330 23ft 0kts
25-Jun-18 08:46 43.415254 -124.246058 330 23ft 0kts
25-Jun-18 08:47 43.415254 -124.246058 330 23ft 0kts
25-Jun-18 08:48 43.415254 -124.246058 330 23ft 0kts
25-Jun-18 08:49 43.415254 -124.246058 330 23ft 0kts
25-Jun-18 08:50 43.415254 -124.246058 330 23ft 0kts
25-Jun-18 08:51 43.415254 -124.246058 330 23ft 0kts
25-Jun-18 08:52 43.415254 -124.246058 330 23ft 0kts
25-Jun-18 08:53 43.415254 -124.246058 330 23ft 0kts
25-Jun-18 08:54 43.415254 -124.246058 330 23ft 0kts
25-Jun-18 08:55 43.415254 -124.246058 330 23ft 0kts
25-Jun-18 08:56 43.415254 -124.246058 330 23ft 0kts
25-Jun-18 08:57 43.415272 -124.246071 335 23ft 0kts
25-Jun-18 08:58 43.416575 -124.245070 330 22ft 9kts
25-Jun-18 08:59 43.419131 -124.246821 43 22ft 0kts
25-Jun-18 09:00 43.421034 -124.242168 60 23ft 19kts
25-Jun-18 09:01 43.421852 -124.240382 334 22ft 0kts
25-Jun-18 09:02 43.421852 -124.240382 334 22ft 0kts
25-Jun-18 09:03 43.421852 -124.240382 334 22ft 0kts
25-Jun-18 09:04 43.421899 -124.240430 316 23ft 3kts
25-Jun-18 09:05 43.422022 -124.240586 326 23ft 0kts
25-Jun-18 09:06 43.422025 -124.240589 326 23ft 0kts
25-Jun-18 09:07 43.414789 -124.259106 245 506ft 123kts
25-Jun-18 09:08 43.421089 -124.313237 334 2041ft 161kts
25-Jun-18 09:09 43.451210 -124.280667 97 4103ft 189kts
25-Jun-18 09:10 43.417212 -124.219106 141 5424ft 215kts
25-Jun-18 09:11 43.416258 -124.139452 87 6793ft 225kts
25-Jun-18 09:12 43.423346 -124.056266 77 8149ft 227kts
25-Jun-18 09:13 43.384635 -124.037903 228 9398ft 193kts
25-Jun-18 09:14 43.341666 -124.083491 209 10506ft 201kts
25-Jun-18 09:15 43.288468 -124.108132 202 11546ft 204kts
25-Jun-18 09:16 43.232399 -124.129125 200 12006ft 221kts
25-Jun-18 09:17 43.176732 -124.160293 191 12002ft 236kts
25-Jun-18 09:18 43.112108 -124.175323 197 12000ft 237kts
25-Jun-18 09:19 43.046312 -124.185077 188 12000ft 242kts
25-Jun-18 09:20 42.979086 -124.188179 188 11999ft 242kts
25-Jun-18 09:21 42.911956 -124.191182 188 11999ft 242kts
25-Jun-18 09:22 42.846645 -124.194094 188 12002ft 243kts
25-Jun-18 09:23 42.778774 -124.197110 188 12001ft 246kts
25-Jun-18 09:24 42.710213 -124.200165 187 11957ft 248kts
25-Jun-18 09:25 42.641913 -124.203169 187 11996ft 247kts
25-Jun-18 09:26 42.573459 -124.206190 187 11962ft 247kts
25-Jun-18 09:27 42.504975 -124.209219 187 11826ft 252kts
25-Jun-18 09:28 42.435107 -124.212317 186 10825ft 255kts
25-Jun-18 09:29 42.363710 -124.215456 185 9924ft 259kts
25-Jun-18 09:30 42.292381 -124.218554 185 8940ft 253kts
25-Jun-18 09:31 42.226042 -124.221436 185 7704ft 230kts
25-Jun-18 09:32 42.163273 -124.224189 185 6491ft 224kts
25-Jun-18 09:33 42.104365 -124.226718 185 6093ft 194kts
25-Jun-18 09:34 42.047567 -124.229252 185 6103ft 210kts
25-Jun-18 09:35 41.988772 -124.231849 184 5404ft 212kts
25-Jun-18 09:36 41.960041 -124.287271 260 4325ft 197kts
25-Jun-18 09:37 41.941301 -124.356729 244 3142ft 201kts
25-Jun-18 09:38 41.897370 -124.370665 156 1959ft 199kts
25-Jun-18 09:39 41.856675 -124.329973 157 1599ft 170kts
25-Jun-18 09:40 41.824766 -124.298413 131 1254ft 127kts
25-Jun-18 09:41 41.802279 -124.266182 134 602ft 115kts
25-Jun-18 09:42 41.781525 -124.236570 135 72ft 91kts
25-Jun-18 09:43 41.775347 -124.229061 287 63ft 12kts
25-Jun-18 09:44 41.775484 -124.229678 291 63ft 2kts
25-Jun-18 09:45 41.777654 -124.233316 313 63ft 17kts
25-Jun-18 09:46 41.778719 -124.235797 161 63ft 0kts
25-Jun-18 09:47 41.778719 -124.235797 161 63ft 0kts
25-Jun-18 09:48 41.778719 -124.235797 161 63ft 0kts

Navigation Log

Ident Type
Flight plan parsing failed, navigation log unavailable